Área dos Cursos
35º Festival de dança de joinville
 
 | Home | Sair |
 
CURSOS PROFESSORES INSCRIÇÕES
Clique nos títulos dos cursos para visualizar a programação completa.
Escolha os cursos desejados clicando nas caixas de seleção ao lado direito de cada curso, abaixo do carrinho de compra!
Para finalizar clique botão COMPRAR CURSOS abaixo da listagem.
Atenção: Caso não apareça o curso na listagem abaixo é porque você já o comprou ou o reservou.

Legenda: D = Vagas disponíveis


CODCURSOPROFESSORDATAHORÁRIOR$D
1balé clássico - avançadoFaTIMA CERQUEIRA18/07/2017 a 21/07/201713:30 - 15:30240,002
2DANÇA A CARÁTER - SêNIORmaria eugênia barrios18/07/2017 a 21/07/201716:10 - 18:10240,0036
3BALÉ CLÁSSICO - INFANTIL - INICIANTEFáTIMA FONTENELLE18/07/2017 a 21/07/20178:00 - 10:00240,004
4BALÉ CLÁSSICO - INFANTIL - INTERMEDIÁRIOFáTIMA FONTENELLE18/07/2017 a 21/07/201710:30 - 12:30240,000
5balé clássico - júnior - inicianteCARLLA BUBLITZ18/07/2017 a 21/07/201713:30 - 15:30240,001
6balé clássico - júnior - intermediárioBEATRIZ ALMEIDA18/07/2017 a 21/07/20178:00 - 10:00240,001
7balé clássico - júnior - intermediárioBEATRIZ ALMEIDA18/07/2017 a 21/07/201710:30 - 12:30240,000
8Balé Clássico - Júnior - IntermediárioCARLLA BUBLITZ18/07/2017 a 21/07/201710:30 - 12:30240,000
9Balé Clássico - Júnior - IntermediárioCARLLA BUBLITZ18/07/2017 a 21/07/201716:10 - 18:10240,000
10BALÉ CLÁSSICO - SêNIOR - INICIANTENEYDE ROSSI18/07/2017 a 21/07/201716:10 - 18:10240,003
11BALÉ CLÁSSICO - SÊNIOR - INTERMEDIÁRIOFAUZI MANSUR18/07/2017 a 21/07/20178:00 - 10:00240,000
12balé clássico - sênior - intermediárioISOLINA RABELLO18/07/2017 a 21/07/201713:30 - 15:30240,0010
13BALÉ CLÁSSICO - SÊNIOR - INTERMEDIÁRIOISOLINA RABELLO18/07/2017 a 21/07/201716:10 - 18:10240,006
14balé clássico - sênior - intermediárioLUIS AUGUSTO RIBEIRO18/07/2017 a 21/07/20178:00 - 10:00240,0017
15barra á terreMILTON KENNEDY18/07/2017 a 21/07/201710:30 - 12:30205,000
16CURSO PARA PROFESSOR - A VISÃO DO PROFESSOR: Como potencializar o ensino/aprendizagem através da análise dos movimentos (TEÓRICO/PRÁTICO)Flávio Sampaio18/07/2017 a 21/07/20178:00 - 10:00205,000
17A história e Equipamentos da iluminaçãoDAVID BOSBOOm18/07/2017 a 21/07/201710:30 - 12:30205,002
18dança contemporânea - avançadoHOLLY CAVRELL18/07/2017 a 21/07/20178:00 - 10:00205,000
19DANÇA CONTEMPORÂNEA - JÚNIOR - INTERMEDIÁRIOHOLLY CAVRELL18/07/2017 a 21/07/201716:10 - 18:10205,0014
20DANÇA CONTEMPORÂNEA - SêNIOR - INTERMEDIÁRIOluciana paludo18/07/2017 a 21/07/201710:30 - 12:30205,000
21DANÇA FLAMENCAMIRI GALEANO18/07/2017 a 21/07/201713:30 - 15:30240,008
22danças populares brasileiraseleonora gabriel18/07/2017 a 21/07/20178:00 - 10:00205,0011
23DANÇAS URBANAS - HIP HOP EXPERIMENTALJULIANA KIS18/07/2017 a 21/07/201710:30 - 12:30205,000
24ENSAIADOR E ASSISTENTE DE COREOGRAFIAMARCIA de castro18/07/2017 a 21/07/201716:10 - 18:10205,000
25JAZZ LÍRICO - JúNIOR - INICIANTELUAN RATTACASO18/07/2017 a 21/07/20178:00 - 10:00205,009
26JAZZ LÍRICO - JúNIOR - INTERMEDIÁRIOLUAN RATTACASO18/07/2017 a 21/07/201716:10 - 18:10205,000
27JAZZ MUSICAL - INTERMEDIÁRIOFernanda Chamma18/07/2017 a 21/07/201713:30 - 15:30205,000
28METODOLOGIA DE ENSINO DO BALÉ PARA PROFESSORES I (teórico)VERA ARAGÃO18/07/2017 a 21/07/201716:10 - 18:10205,000
29MODERN JAZZ - SÊNIOR - INTERMEDIÁRIOCAIO NUNES18/07/2017 a 21/07/201713:30 - 15:30205,000
30PAS DE DEUX CLÁSSICO - TÉCNICA E EXPRESSÃO - VAGAS FEMININASPAULO RODRIGUES18/07/2017 a 21/07/201713:30 - 15:30240,000
31pas de deux clássico - técnica e expressão - vagas masculinasPAULO RODRIGUES18/07/2017 a 21/07/201713:30 - 15:30240,0013
32preparação física para bailarinosMILTON KENNEDY18/07/2017 a 21/07/201716:10 - 18:10205,000
33SAPATEADO - INFANTIL - INTERMEDIÁRIOBia mattar18/07/2017 a 21/07/201713:30 - 15:30205,0021
34técnica de pontas - júnior - inicianteNEYDE ROSSI18/07/2017 a 21/07/201710:30 - 12:30240,000
35balé clássico - avançadogustavo lopes22/07/2017 a 25/07/201716:10 - 18:10240,000
36DANÇA A CARÁTER - SêNIORmaria eugênia barrios22/07/2017 a 25/07/201710:30 - 12:30240,0032
37balé clássico - júnior - inicianteCARLLA BUBLITZ22/07/2017 a 25/07/20178:00 - 10:00240,0016
38Balé Clássico - Júnior - IntermediárioCARLLA BUBLITZ22/07/2017 a 25/07/201710:30 - 12:30240,000
39balé clássico - júnior - intermediárioilara lopes22/07/2017 a 25/07/20178:00 - 10:00240,000
40BALÉ CLÁSSICO - JÚNIOR - INTERMEDIÁRIOISOLINA RABELLO22/07/2017 a 25/07/201713:30 - 15:30240,0010
41balé clássico - infantil - intermediárioISOLINA RABELLO22/07/2017 a 25/07/201716:10 - 18:10240,000
42balé clássico - sênior - inicianteBEATRIZ ALMEIDA22/07/2017 a 25/07/201710:30 - 12:30240,000
43balé clássico - sênior - intermediáriogustavo lopes22/07/2017 a 25/07/201713:30 - 15:30240,0016
44balé clássico - sênior - intermediárioilara lopes22/07/2017 a 25/07/201710:30 - 12:30240,001
45BALÉ CLÁSSICO - SÊNIOR - INTERMEDIÁRIONEYDE ROSSI22/07/2017 a 25/07/20178:00 - 10:00240,008
46Balé Clássico - Sênior - IntermediárioNEYDE ROSSI22/07/2017 a 25/07/201716:10 - 18:10240,0029
47BARRA À TERREMILTON KENNEDY22/07/2017 a 25/07/20178:00 - 10:00205,000
48Conceitos de Design de IluminaçãoDAVID BOSBOOm22/07/2017 a 25/07/201710:30 - 12:30205,000
49DANÇA CONTEMPORÂNEA - JÚNIOR - INTERMEDIÁRIOFLÁVIO LIMA22/07/2017 a 25/07/201710:30 - 12:30205,0013
50dança contemporânea - júnior - intermediáriowagner moreira22/07/2017 a 25/07/201716:10 - 18:10205,0026
51DANÇA CONTEMPORÂNEA - SÊNIOR - INTERMEDIÁRIOFLÁVIO LIMA22/07/2017 a 25/07/201716:10 - 18:10205,000
52dança contemporânea - sênior - intermediáriowagner moreira22/07/2017 a 25/07/201713:30 - 15:30205,000
53DANÇAS URBANAS - práticasugo alexandre22/07/2017 a 25/07/20178:00 - 10:00205,005
54INTRODUÇÃO A DANÇA DO VENTREclara sussekind22/07/2017 a 25/07/201716:10 - 18:10205,0012
55JAZZ DANCEHELÔ GOUVEIA22/07/2017 a 25/07/201713:30 - 15:30205,000
56jazz dance - júnior - intermediárioANDREA SPOSITO22/07/2017 a 25/07/20178:00 - 10:00205,000
57Jazz Dance - sÊnior - InicianteANDREA SPOSITO22/07/2017 a 25/07/201710:30 - 12:30205,000
58JAZZ DANCE - SÊNIOR - INTERMEDIÁRIOANDREA SPOSITO22/07/2017 a 25/07/201716:10 - 18:10205,000
59MÉTODO RP2 - MOBILIDADE FUNCIONALMEG MENDONÇA22/07/2017 a 25/07/20178:00 - 10:00205,000
60MÉTODO RP2 - MOBILIDADE FUNCIONALMEG MENDONÇA22/07/2017 a 25/07/201716:10 - 18:10205,000
61METODOLOGIA DE ENSINO DO BALÉ PARA PROFESSORES II (teórico)VERA ARAGÃO22/07/2017 a 25/07/20178:00 - 10:00205,000
62O GRANDE LEGADO DA RÚSSIA DO SÉCULO XIX - BALés COMPLETOS DE REPERTÓRIOELIANA CAMINADA22/07/2017 a 25/07/201713:30 - 15:30205,000
63PAS DE DEUX CLÁSSICO - TÉCNICA E EXPRESSÃO - VAGAS FEMININASPAULO RODRIGUES22/07/2017 a 25/07/201713:30 - 15:30240,000
64PAS DE DEUX CLÁSSICO - TÉCNICA E EXPRESSÃO - VAGAS MASCULINASPAULO RODRIGUES22/07/2017 a 25/07/201713:30 - 15:30240,009
65PREPARAÇÃO FÍSICA PARA BAILARINOSMILTON KENNEDY22/07/2017 a 25/07/201710:30 - 12:30205,000
66preparação física para bailarinosMILTON KENNEDY22/07/2017 a 25/07/201713:30 - 15:30205,000
67SAPATEADO - JÚNIOR - INTERMEDIÁRIOflavia costa22/07/2017 a 25/07/201713:30 - 15:30205,0019
68TÉCNICA DE PONTAS - SÊNIOR - INICIANTEmaria eugênia barrios22/07/2017 a 25/07/20178:00 - 10:00240,000
69Balé Clássico - Avançadogustavo lopes26/07/2017 a 29/07/201716:10 - 18:10240,0031
70Balé Clássico - Júnior - InicianteCARLLA BUBLITZ26/07/2017 a 29/07/20178:00 - 10:00240,009
71Balé Clássico - Júnior - IntermediárioBEATRIZ ALMEIDA26/07/2017 a 29/07/20178:00 - 10:00240,0031
72Balé Clássico - Júnior - IntermediárioBEATRIZ ALMEIDA26/07/2017 a 29/07/201716:10 - 18:10240,0033
73Balé Clássico - Júnior - IntermediárioCARLLA BUBLITZ26/07/2017 a 29/07/201710:30 - 12:30240,004
74Balé Clássico - JÚnior - Intermediárioilara lopes26/07/2017 a 29/07/20178:00 - 10:00240,0026
75Balé Clássico - Sênior - Inicianteilara lopes26/07/2017 a 29/07/201710:30 - 12:30240,0018
76Balé Clássico - Sênior - IntermediárioFaTIMA CERQUEIRA26/07/2017 a 29/07/201713:30 - 15:30240,0023
77Balé Clássico - Sênior - Intermediáriogustavo lopes26/07/2017 a 29/07/20178:00 - 10:00240,0031
78BALÉ CLÁSSICO - SêNIOR - INTERMEDIÁRIOmaria eugênia barrios26/07/2017 a 29/07/201710:30 - 12:30240,0035
79CURSO PARA PROFESSOR - BALÉ CLÁSSICOmaria eugênia barrios26/07/2017 a 29/07/201716:10 - 18:10240,0022
80Balé Clássico - Sênior - IntermediárioNEYDE ROSSI26/07/2017 a 29/07/201710:30 - 12:30240,0011
81Balé Clássico - Sênior - Intermediárioregina kotaka26/07/2017 a 29/07/201713:30 - 15:30240,0018
82BARRA À TERREMILTON KENNEDY26/07/2017 a 29/07/20178:00 - 10:00205,000
83CURSO PARA PROFESSOR - JAZZ DANCE (PRÁTICO/TEÓRICO)ANDREA SPOSITO26/07/2017 a 29/07/20178:00 - 10:00205,000
84CURSO PARA PROFESSOR - PRÁTICAS E TEORIAS PARA O ENSINO DA DANÇAESMERALDA GAZAL26/07/2017 a 29/07/201716:10 - 18:10205,000
85Dança Contemporânea - Infantil - Inicianteluciana paludo26/07/2017 a 29/07/201713:30 - 15:30205,006
86Dança Contemporânea - JÚnior - IntermediÁrioFLÁVIO LIMA26/07/2017 a 29/07/20178:00 - 10:00205,0012
87Dança Contemporânea - SÊnior - IntermediÁrioFLÁVIO LIMA26/07/2017 a 29/07/201710:30 - 12:30205,000
88DANÇA CONTEMPORÂNEA - SêNIOR - INTERMEDIÁRIO: Danças Negras Contemporâneasrui moreira26/07/2017 a 29/07/201713:30 - 15:30205,007
89musicais broadway - O violinista no telhadoalain sinai26/07/2017 a 29/07/201710:30 - 12:30205,0026
90DANÇAS URBANAS - SÊNIORHUGO OLIVEIRA26/07/2017 a 29/07/201713:30 - 15:30205,0016
91GESTÃO DE ESCOLAS DE DANÇA (teórico)laisa scandura26/07/2017 a 29/07/201710:30 - 12:30205,000
92Jazz Dance - Infantil - intermediárioANDREA SPOSITO26/07/2017 a 29/07/201710:30 - 12:30205,002
93MODERN JAZZ - SÊNIOR - INTERMEDIÁRIOsoraya bastos26/07/2017 a 29/07/201713:30 - 15:30205,000
94Preparação física para bailarinosMILTON KENNEDY26/07/2017 a 29/07/201716:10 - 18:10205,000
95SAPATEADO - AVANÇADO: Técnica, clareza e músicamarina coura26/07/2017 a 29/07/201716:10 - 18:10205,0011
96SAPATEADO AMERICANO - INICIANTE: TAP IS BACK!dora de paula26/07/2017 a 29/07/201713:30 - 15:30205,003
97Técnica de Pontas - júnior - IntermediárioNEYDE ROSSI26/07/2017 a 29/07/201716:10 - 18:10240,0019
 
Festival de Dança de Joinville